createdAt,value
2019-01-09T00:00:52.688Z,97.70
2019-01-09T00:06:10.664Z,97.80
2019-01-09T00:11:28.611Z,98.00
2019-01-09T00:16:46.495Z,98.20
2019-01-09T00:22:04.322Z,98.50
2019-01-09T00:27:22.132Z,98.60
2019-01-09T00:32:40.015Z,98.70
2019-01-09T00:37:57.827Z,98.80
2019-01-09T00:43:15.724Z,98.70
2019-01-09T00:48:33.539Z,98.70
2019-01-09T00:53:51.432Z,98.60
2019-01-09T00:59:09.251Z,98.50
2019-01-09T01:04:45.046Z,98.50
2019-01-09T01:10:15.448Z,98.40
2019-01-09T01:15:57.566Z,98.50
2019-01-09T01:21:30.671Z,98.40
2019-01-09T01:26:54.350Z,98.40
2019-01-09T01:32:33.662Z,98.40
2019-01-09T01:38:00.731Z,98.50
2019-01-09T01:43:27.708Z,98.60
2019-01-09T01:48:54.700Z,98.60
2019-01-09T01:54:21.688Z,98.60
2019-01-09T01:59:48.571Z,98.60
2019-01-09T02:05:15.642Z,98.60
2019-01-09T02:10:39.784Z,98.60
2019-01-09T02:16:33.328Z,98.60
2019-01-09T02:22:09.303Z,98.60
2019-01-09T02:27:36.144Z,98.60
2019-01-09T02:32:54.047Z,98.60
2019-01-09T02:38:11.873Z,98.60
2019-01-09T02:43:29.692Z,98.60
2019-01-09T02:48:48.756Z,98.60
2019-01-09T02:54:06.623Z,98.60
2019-01-09T02:59:24.441Z,98.60
2019-01-09T03:04:42.258Z,98.60
2019-01-09T03:10:00.102Z,98.60
2019-01-09T03:15:19.414Z,98.60
2019-01-09T03:20:37.329Z,98.60
2019-01-09T03:25:55.133Z,98.60
2019-01-09T03:31:12.955Z,98.60
2019-01-09T03:36:32.924Z,98.60
2019-01-09T03:41:50.217Z,98.60
2019-01-09T03:47:08.086Z,98.60
2019-01-09T03:52:25.907Z,98.70
2019-01-09T03:57:43.808Z,98.70
2019-01-09T04:03:01.608Z,98.80
2019-01-09T04:08:19.425Z,98.70
2019-01-09T04:13:37.237Z,98.70
2019-01-09T04:18:55.260Z,98.70
2019-01-09T04:24:13.087Z,98.60
2019-01-09T04:29:30.908Z,98.60
2019-01-09T04:34:48.728Z,98.60
2019-01-09T04:40:06.540Z,98.50
2019-01-09T04:45:25.433Z,98.60
2019-01-09T04:50:43.259Z,98.70
2019-01-09T04:56:43.853Z,98.60
2019-01-09T05:02:01.849Z,98.60
2019-01-09T05:07:19.666Z,98.60
2019-01-09T05:12:37.495Z,98.60
2019-01-09T05:17:55.397Z,98.60
2019-01-09T05:23:13.231Z,98.60
2019-01-09T05:28:31.055Z,98.60
2019-01-09T05:33:48.960Z,98.60
2019-01-09T05:39:07.334Z,98.60
2019-01-09T05:44:25.155Z,98.60
2019-01-09T05:49:42.975Z,98.60
2019-01-09T05:55:00.838Z,98.50
2019-01-09T06:00:18.876Z,98.60
2019-01-09T06:05:36.738Z,98.80
2019-01-09T06:10:54.568Z,98.50
2019-01-09T06:16:12.452Z,98.50
2019-01-09T06:21:30.284Z,98.50
2019-01-09T06:26:48.117Z,98.50
2019-01-09T06:32:05.955Z,98.40
2019-01-09T06:37:27.540Z,98.50
2019-01-09T06:42:43.383Z,98.50
2019-01-09T06:48:01.191Z,98.40
2019-01-09T06:53:19.027Z,98.40
2019-01-09T06:58:36.850Z,98.40
2019-01-09T07:03:54.674Z,98.40
2019-01-09T07:09:12.499Z,98.40
2019-01-09T07:14:30.327Z,98.50
2019-01-09T07:19:57.716Z,98.50
2019-01-09T07:25:15.549Z,98.80
2019-01-09T07:30:33.416Z,98.40
2019-01-09T07:35:51.231Z,98.40
2019-01-09T07:41:09.060Z,98.40
2019-01-09T07:46:26.946Z,98.40
2019-01-09T07:51:44.787Z,98.40
2019-01-09T07:57:02.616Z,98.40
2019-01-09T08:02:20.435Z,98.40
2019-01-09T08:07:38.788Z,98.40
2019-01-09T08:12:56.576Z,98.40
2019-01-09T08:18:14.397Z,98.40
2019-01-09T08:23:32.282Z,98.40
2019-01-09T08:28:50.108Z,98.40
2019-01-09T08:34:07.911Z,98.40
2019-01-09T08:39:25.728Z,98.30
2019-01-09T08:44:43.564Z,98.30
2019-01-09T08:50:01.388Z,98.40
2019-01-09T08:55:19.208Z,98.70
2019-01-09T09:00:37.032Z,98.40
2019-01-09T09:05:54.908Z,98.40
2019-01-09T09:11:12.672Z,98.30
2019-01-09T09:16:36.584Z,98.40
2019-01-09T09:21:50.087Z,98.40
2019-01-09T09:27:07.966Z,98.40
2019-01-09T09:32:25.726Z,98.40
2019-01-09T09:37:43.555Z,98.40
2019-01-09T09:43:01.379Z,98.40
2019-01-09T09:48:19.201Z,98.50
2019-01-09T09:53:37.031Z,98.50
2019-01-09T09:58:54.856Z,98.50
2019-01-09T10:04:12.683Z,98.60
2019-01-09T10:09:30.651Z,98.60
2019-01-09T10:14:48.474Z,98.60
2019-01-09T10:20:15.459Z,98.60
2019-01-09T10:25:33.280Z,98.60
2019-01-09T10:30:51.121Z,98.60
2019-01-09T10:36:09.029Z,98.60
2019-01-09T10:41:26.857Z,98.60
2019-01-09T10:46:44.891Z,98.60
2019-01-09T10:52:02.741Z,98.70
2019-01-09T10:57:20.636Z,98.70
2019-01-09T11:02:38.491Z,98.90
2019-01-09T11:07:56.336Z,98.70
2019-01-09T11:13:14.199Z,98.70
2019-01-09T11:18:32.039Z,98.80
2019-01-09T11:23:49.866Z,98.70
2019-01-09T11:29:08.755Z,98.80
2019-01-09T11:34:26.649Z,98.80
2019-01-09T11:39:44.472Z,98.80
2019-01-09T11:45:02.293Z,98.70
2019-01-09T11:50:20.168Z,98.70
2019-01-09T11:55:37.989Z,99.00
2019-01-09T12:00:55.812Z,98.80
2019-01-09T12:06:13.731Z,98.80
2019-01-09T12:11:31.558Z,98.70
2019-01-09T12:16:49.375Z,98.80
2019-01-09T12:22:07.375Z,98.70
2019-01-09T12:27:25.408Z,98.80
2019-01-09T12:32:43.309Z,98.80
2019-01-09T12:38:01.203Z,98.80
2019-01-09T12:43:19.013Z,98.90
2019-01-09T12:48:36.831Z,98.90
2019-01-09T12:53:54.648Z,98.90
2019-01-09T12:59:21.382Z,99.10
2019-01-09T13:04:32.873Z,98.90
2019-01-09T13:09:50.692Z,98.90
2019-01-09T13:15:10.038Z,98.80
2019-01-09T13:20:27.925Z,98.90
2019-01-09T13:25:45.977Z,98.90
2019-01-09T13:31:03.864Z,99.10
2019-01-09T13:36:22.156Z,99.00
2019-01-09T13:41:39.967Z,99.00
2019-01-09T13:46:58.979Z,99.00
2019-01-09T13:52:16.788Z,99.00
2019-01-09T13:57:34.679Z,99.00
2019-01-09T14:02:52.499Z,98.90
2019-01-09T14:08:10.323Z,98.90
2019-01-09T14:13:28.307Z,99.30
2019-01-09T14:18:54.756Z,99.00
2019-01-09T14:24:05.612Z,99.00
2019-01-09T14:29:23.436Z,99.00
2019-01-09T14:34:41.238Z,99.00
2019-01-09T14:39:59.115Z,99.10
2019-01-09T14:45:18.580Z,98.90
2019-01-09T14:50:36.400Z,99.10
2019-01-09T14:55:54.312Z,99.20
2019-01-09T15:01:12.811Z,99.20
2019-01-09T15:06:30.711Z,99.10
2019-01-09T15:11:48.544Z,99.20
2019-01-09T15:17:06.360Z,99.20
2019-01-09T15:22:24.195Z,99.20
2019-01-09T15:27:42.122Z,99.30
2019-01-09T15:32:59.915Z,99.40
2019-01-09T15:38:19.876Z,99.40
2019-01-09T15:43:37.207Z,99.40
2019-01-09T15:48:55.141Z,99.40
2019-01-09T15:54:14.283Z,99.50
2019-01-09T15:59:32.384Z,99.50
2019-01-09T16:04:50.291Z,99.50
2019-01-09T16:10:14.681Z,99.50
2019-01-09T16:15:30.653Z,99.30
2019-01-09T16:20:48.476Z,99.30
2019-01-09T16:26:06.304Z,99.30
2019-01-09T16:31:24.132Z,99.30
2019-01-09T16:36:41.965Z,99.30
2019-01-09T16:41:59.821Z,99.30
2019-01-09T16:47:18.568Z,99.30
2019-01-09T16:52:36.474Z,99.30
2019-01-09T16:57:54.323Z,99.30
2019-01-09T17:06:15.895Z,99.00
2019-01-09T17:11:33.942Z,99.40
2019-01-09T17:17:40.676Z,99.10
2019-01-09T17:22:58.599Z,99.40
2019-01-09T17:28:16.437Z,99.40
2019-01-09T17:33:34.423Z,99.40
2019-01-09T17:38:52.272Z,99.40
2019-01-09T17:44:10.110Z,99.40
2019-01-09T17:49:27.983Z,99.50
2019-01-09T17:54:46.150Z,99.50
2019-01-09T18:00:07.486Z,99.50
2019-01-09T18:05:25.392Z,99.50
2019-01-09T18:10:49.944Z,99.50
2019-01-09T18:16:02.750Z,99.50
2019-01-09T18:21:20.664Z,99.50
2019-01-09T18:26:38.489Z,99.50
2019-01-09T18:32:02.560Z,99.40
2019-01-09T18:37:29.875Z,99.40
2019-01-09T18:43:07.758Z,99.40
2019-01-09T18:48:48.296Z,99.50
2019-01-09T18:54:06.926Z,99.40
2019-01-09T18:59:24.747Z,99.40
2019-01-09T19:04:42.581Z,99.40
2019-01-09T19:10:00.420Z,99.40
2019-01-09T19:15:18.279Z,99.50
2019-01-09T19:20:36.195Z,99.40
2019-01-09T19:25:54.030Z,99.40
2019-01-09T19:31:11.887Z,99.40
2019-01-09T19:36:29.791Z,99.40
2019-01-09T19:41:47.622Z,99.40
2019-01-09T19:47:05.462Z,99.40
2019-01-09T19:52:23.448Z,99.30
2019-01-09T19:57:41.269Z,99.30
2019-01-09T20:02:59.112Z,99.30
2019-01-09T20:08:18.400Z,99.30
2019-01-09T20:13:36.253Z,99.30
2019-01-09T20:18:54.136Z,99.30
2019-01-09T20:24:11.928Z,99.30
2019-01-09T20:29:29.781Z,99.30
2019-01-09T20:34:47.610Z,99.40
2019-01-09T20:40:08.735Z,99.30
2019-01-09T20:45:27.108Z,99.30
2019-01-09T20:50:44.946Z,99.30
2019-01-09T20:56:04.122Z,99.40
2019-01-09T21:01:21.998Z,99.40
2019-01-09T21:06:39.843Z,99.40
2019-01-09T21:11:57.708Z,99.50
2019-01-09T21:17:15.563Z,99.60
2019-01-09T21:22:33.375Z,99.50
2019-01-09T21:27:51.279Z,99.50
2019-01-09T21:33:09.155Z,99.60
2019-01-09T21:38:27.031Z,99.60
2019-01-09T21:43:44.923Z,99.60
2019-01-09T21:49:02.734Z,99.50
2019-01-09T21:54:20.546Z,99.50
2019-01-09T21:59:38.407Z,99.60
2019-01-09T22:04:56.363Z,99.60
2019-01-09T22:10:17.191Z,99.60
2019-01-09T22:15:35.182Z,99.60
2019-01-09T22:20:53.040Z,99.60
2019-01-09T22:26:10.864Z,99.60
2019-01-09T22:31:28.688Z,99.70
2019-01-09T22:36:46.521Z,99.80
2019-01-09T22:42:11.722Z,99.80
2019-01-09T22:47:23.791Z,99.90
2019-01-09T22:52:41.696Z,99.90
2019-01-09T22:57:59.519Z,99.90
2019-01-09T23:03:17.399Z,99.90
2019-01-09T23:08:35.256Z,99.90
2019-01-09T23:13:53.055Z,99.90
2019-01-09T23:19:11.055Z,99.90
2019-01-09T23:24:28.867Z,99.90
2019-01-09T23:29:46.709Z,99.90
2019-01-09T23:35:06.359Z,99.90
2019-01-09T23:40:24.190Z,99.90
2019-01-09T23:45:42.013Z,99.90
2019-01-09T23:50:59.912Z,99.90
2019-01-09T23:56:18.076Z,99.90
